Airfield :
LOGIN :

Register | Disclaimer

   EN    FR    IT 

 










Legend :    VFR   Marginal VFR   IFR   Intensive IFR   Very Intensive IFR
Visi :
Ceiling :
>= 8 km
>= 3000ft
5 to 8 km
1000 to 3000 ft
1500m to 5 km
500 to 1000 ft
800 to 1500m
200 to 500 ft
< 800m
< 200 ft
Symbols :   Thunderstorms  Fog  Heavy snow  Heavy precipitations  Wind > 20 kt
SIGMETs :     Misc.  Thunderstorms  Icing  Turbulence  Mountain Waves  Volcanic Ashes







- Airport Elevation : 80 ft
- IATA code : LPL
- Download approach charts


EGGP - Liverpool John Lennon

CURRENT METAR :
  • 210050Z 12007KT 090V160 CAVOK 13/11 Q1017

EXPIRED METARs :
  • 210020Z 11009KT CAVOK 14/11 Q1017
  • 202350Z 12012KT CAVOK 14/11 Q1017
  • 202320Z 12011G21KT CAVOK 15/10 Q1017
  • 202250Z 11012KT 080V150 CAVOK 15/11 Q1018
  • 202220Z 12011KT CAVOK 15/12 Q1018

TAF TAF EGGP
Valid from the 21 at 00:00 until the 22 at 00:00 UTC


202258Z 2100/2124 12012KT CAVOK
TEMPO 2100/2108 12015G25KT
PROB30
TEMPO 2108/2112 12015G25KT
PROB40
TEMPO 2123/2124 6000 SHRA BKN040
ATIS : +44 151 907 2000 (option 5 or ext 5150)
Met : +44 871 750 5150
No reported NOTAMs for that airfield.



MET'MAP, your aeronautical weather chart ! - Copyright ORBIFLY December 2007 - Disclaimer

ORBIFLY MET'MAP TEAM :

Programming & Development : Alexandra Zaïnal
Concept & Development : Baudouin d'Aumeries
Co-Development & Prog : Marc-Olivier Méhu
Technical & hardware support : Manuel Goepfert

Contact : metmap@orbifly.com




SOURCES & CREDITS :

   NOAA